createdAt,value
2017-11-10T00:02:05.175Z,451.67
2017-11-10T00:04:14.254Z,447.33
2017-11-10T00:06:20.985Z,437.50
2017-11-10T00:08:26.861Z,420.87
2017-11-10T00:10:33.275Z,412.67
2017-11-10T00:12:41.159Z,408.70
2017-11-10T00:14:47.134Z,416.97
2017-11-10T00:16:54.068Z,399.97
2017-11-10T00:19:02.907Z,384.30
2017-11-10T00:21:08.635Z,386.07
2017-11-10T00:23:23.820Z,374.73
2017-11-10T00:25:31.463Z,363.93
2017-11-10T00:27:39.719Z,355.23
2017-11-10T00:29:48.354Z,352.70
2017-11-10T00:31:55.163Z,350.67
2017-11-10T00:34:04.593Z,342.50
2017-11-10T00:36:15.508Z,336.77
2017-11-10T00:38:21.706Z,330.63
2017-11-10T00:40:28.886Z,328.87
2017-11-10T00:42:40.070Z,321.83
2017-11-10T00:44:46.576Z,313.30
2017-11-10T00:46:52.934Z,300.70
2017-11-10T00:49:00.423Z,300.20
2017-11-10T00:51:06.805Z,289.77
2017-11-10T00:53:14.189Z,289.03
2017-11-10T00:55:20.115Z,281.70
2017-11-10T00:57:26.104Z,273.90
2017-11-10T00:59:32.070Z,267.10
2017-11-10T01:01:41.956Z,266.30
2017-11-10T01:03:48.172Z,254.63
2017-11-10T01:05:54.619Z,249.90
2017-11-10T01:08:14.215Z,250.30
2017-11-10T01:10:20.134Z,238.67
2017-11-10T01:12:26.695Z,240.57
2017-11-10T01:14:32.435Z,227.80
2017-11-10T01:16:38.382Z,223.47
2017-11-10T01:18:44.203Z,226.80
2017-11-10T01:20:50.729Z,209.13
2017-11-10T01:22:57.402Z,215.67
2017-11-10T01:25:08.119Z,208.83
2017-11-10T01:27:15.635Z,197.27
2017-11-10T01:29:21.592Z,200.90
2017-11-10T01:31:27.353Z,190.50
2017-11-10T01:33:33.049Z,184.77
2017-11-10T01:35:39.849Z,182.67
2017-11-10T01:37:47.363Z,178.00
2017-11-10T01:39:53.926Z,168.20
2017-11-10T01:42:00.781Z,175.93
2017-11-10T01:44:14.768Z,168.17
2017-11-10T01:46:20.558Z,156.37
2017-11-10T01:48:52.160Z,163.90
2017-11-10T01:51:01.125Z,156.70
2017-11-10T01:53:16.673Z,151.00
2017-11-10T01:55:22.530Z,151.20
2017-11-10T01:57:29.285Z,146.73
2017-11-10T01:59:35.438Z,141.63
2017-11-10T02:01:42.706Z,131.93
2017-11-10T02:03:48.874Z,137.67
2017-11-10T02:05:55.358Z,133.27
2017-11-10T02:08:03.688Z,135.80
2017-11-10T02:10:11.693Z,132.60
2017-11-10T02:12:19.219Z,121.13
2017-11-10T02:14:27.908Z,121.67
2017-11-10T02:16:33.709Z,123.00
2017-11-10T02:18:39.536Z,117.77
2017-11-10T02:20:46.736Z,119.37
2017-11-10T02:22:53.314Z,115.30
2017-11-10T02:25:05.965Z,113.60
2017-11-10T02:27:15.745Z,106.67
2017-11-10T02:29:25.771Z,102.57
2017-11-10T02:31:35.974Z,102.37
2017-11-10T02:33:41.692Z,104.90
2017-11-10T02:35:50.287Z,98.43
2017-11-10T02:37:59.514Z,97.30
2017-11-10T02:40:09.742Z,93.90
2017-11-10T02:42:20.047Z,96.60
2017-11-10T02:44:26.340Z,88.23
2017-11-10T02:46:33.116Z,84.17
2017-11-10T02:48:40.821Z,87.40
2017-11-10T02:50:48.475Z,84.67
2017-11-10T02:52:55.359Z,80.60
2017-11-10T02:55:05.106Z,82.50
2017-11-10T02:57:29.476Z,78.00
2017-11-10T02:59:42.847Z,72.23
2017-11-10T03:02:05.043Z,73.93
2017-11-10T03:04:17.998Z,72.70
2017-11-10T03:06:23.611Z,71.53
2017-11-10T03:08:29.405Z,67.93
2017-11-10T03:13:21.512Z,64.07
2017-11-10T03:15:27.736Z,64.13
2017-11-10T03:17:34.658Z,61.33
2017-11-10T03:19:41.270Z,63.33
2017-11-10T03:21:48.780Z,60.00
2017-11-10T03:24:00.878Z,57.43
2017-11-10T03:26:13.863Z,56.90
2017-11-10T03:28:20.156Z,54.83
2017-11-10T03:30:27.538Z,56.00
2017-11-10T03:32:34.148Z,57.27
2017-11-10T03:34:41.836Z,52.30
2017-11-10T03:36:51.986Z,48.73
2017-11-10T03:39:00.259Z,48.30
2017-11-10T03:41:09.464Z,48.77
2017-11-10T03:43:19.035Z,51.77
2017-11-10T03:45:25.470Z,51.73
2017-11-10T03:47:33.128Z,46.60
2017-11-10T03:49:39.528Z,44.03
2017-11-10T03:51:48.427Z,45.00
2017-11-10T03:53:55.778Z,44.77
2017-11-10T03:56:01.494Z,41.07
2017-11-10T03:58:10.810Z,42.47
2017-11-10T04:00:22.359Z,42.17
2017-11-10T04:02:30.954Z,39.23
2017-11-10T04:04:42.012Z,41.30
2017-11-10T04:06:54.007Z,43.33
2017-11-10T04:08:59.587Z,38.27
2017-11-10T04:11:13.923Z,38.23
2017-11-10T04:13:21.020Z,39.53
2017-11-10T04:15:32.013Z,36.90
2017-11-10T04:17:39.824Z,37.10
2017-11-10T04:19:48.708Z,35.73
2017-11-10T04:21:54.786Z,36.70
2017-11-10T04:24:03.468Z,37.57
2017-11-10T04:26:09.281Z,35.40
2017-11-10T04:28:18.872Z,31.43
2017-11-10T04:30:24.727Z,30.57
2017-11-10T04:32:30.881Z,32.53
2017-11-10T04:34:41.713Z,31.37
2017-11-10T04:36:47.855Z,29.33
2017-11-10T04:38:54.213Z,31.00
2017-11-10T04:41:00.263Z,28.70
2017-11-10T04:43:06.636Z,27.33
2017-11-10T04:45:14.141Z,28.10
2017-11-10T04:47:20.053Z,29.30
2017-11-10T04:49:25.710Z,24.90
2017-11-10T04:51:31.185Z,25.63
2017-11-10T04:53:36.753Z,26.47
2017-11-10T04:55:42.535Z,25.10
2017-11-10T04:57:48.518Z,23.47
2017-11-10T04:59:54.558Z,23.40
2017-11-10T05:02:02.383Z,23.63
2017-11-10T05:04:09.489Z,24.37
2017-11-10T05:06:16.947Z,23.13
2017-11-10T05:08:22.548Z,20.13
2017-11-10T05:10:28.117Z,22.30
2017-11-10T05:12:33.648Z,21.20
2017-11-10T05:14:39.173Z,24.53
2017-11-10T05:16:44.723Z,22.43
2017-11-10T05:18:51.322Z,22.00
2017-11-10T05:20:57.150Z,22.43
2017-11-10T05:23:04.955Z,21.50
2017-11-10T05:25:12.410Z,20.80
2017-11-10T05:27:18.981Z,19.80
2017-11-10T05:29:24.697Z,18.63
2017-11-10T05:31:30.577Z,21.13
2017-11-10T05:33:36.436Z,18.23
2017-11-10T05:35:42.283Z,19.53
2017-11-10T05:37:48.413Z,17.83
2017-11-10T05:39:54.786Z,19.00
2017-11-10T05:42:06.823Z,19.17
2017-11-10T05:44:15.543Z,18.50
2017-11-10T05:46:30.372Z,18.80
2017-11-10T05:48:36.404Z,18.77
2017-11-10T05:50:42.943Z,17.80
2017-11-10T05:52:49.868Z,17.97
2017-11-10T05:54:57.765Z,19.20
2017-11-10T05:57:04.125Z,19.00
2017-11-10T05:59:13.914Z,17.10
2017-11-10T06:01:19.786Z,17.67
2017-11-10T06:03:26.494Z,17.53
2017-11-10T06:05:33.336Z,18.10
2017-11-10T06:07:40.260Z,18.00
2017-11-10T06:09:48.259Z,16.80
2017-11-10T06:11:55.257Z,17.00
2017-11-10T06:14:03.130Z,17.47
2017-11-10T06:16:12.649Z,17.53
2017-11-10T06:18:24.547Z,16.17
2017-11-10T06:20:42.726Z,15.43
2017-11-10T06:22:53.382Z,16.00
2017-11-10T06:25:00.395Z,16.97
2017-11-10T06:27:08.877Z,16.50
2017-11-10T06:29:23.949Z,14.07
2017-11-10T06:31:30.455Z,14.97
2017-11-10T06:33:38.497Z,14.63
2017-11-10T06:35:45.376Z,14.70
2017-11-10T06:37:53.014Z,14.27
2017-11-10T06:40:00.260Z,13.13
2017-11-10T06:42:07.591Z,13.97
2017-11-10T06:44:16.701Z,13.87
2017-11-10T06:46:24.323Z,13.63
2017-11-10T06:48:29.806Z,13.67
2017-11-10T06:50:35.896Z,12.27
2017-11-10T06:52:43.254Z,13.53
2017-11-10T06:54:49.246Z,13.93
2017-11-10T06:56:55.522Z,12.73
2017-11-10T06:59:04.872Z,12.40
2017-11-10T07:01:11.125Z,12.43
2017-11-10T07:03:21.872Z,12.63
2017-11-10T07:05:27.720Z,13.43
2017-11-10T07:07:33.127Z,12.47
2017-11-10T07:09:39.072Z,12.73
2017-11-10T07:11:45.045Z,18.90
2017-11-10T07:13:52.525Z,42.47
2017-11-10T07:16:18.267Z,37.77
2017-11-10T07:18:25.760Z,43.37
2017-11-10T07:20:31.864Z,41.67
2017-11-10T07:22:37.597Z,46.73
2017-11-10T07:24:48.163Z,52.43
2017-11-10T07:26:54.384Z,60.97
2017-11-10T07:29:02.293Z,1999.90
2017-11-10T07:31:08.485Z,500.10
2017-11-10T07:33:17.704Z,306.40
2017-11-10T07:35:23.366Z,316.07
2017-11-10T07:37:29.776Z,287.23
2017-11-10T07:39:35.427Z,283.97
2017-11-10T07:41:41.417Z,289.27
2017-11-10T07:43:47.919Z,272.40
2017-11-10T07:45:54.223Z,280.50
2017-11-10T07:48:04.390Z,276.13
2017-11-10T07:50:10.109Z,499.20
2017-11-10T07:52:19.638Z,439.57
2017-11-10T07:54:25.417Z,454.70
2017-11-10T07:56:32.659Z,461.03
2017-11-10T07:58:38.318Z,484.87
2017-11-10T08:00:44.312Z,471.03
2017-11-10T08:02:50.674Z,469.70
2017-11-10T08:04:57.421Z,461.20
2017-11-10T08:07:05.740Z,451.67
2017-11-10T08:09:14.429Z,861.87
2017-11-10T08:11:20.000Z,634.77
2017-11-10T08:13:27.262Z,684.87
2017-11-10T08:15:32.543Z,636.03
2017-11-10T08:17:38.160Z,598.20
2017-11-10T08:19:44.254Z,581.43
2017-11-10T08:21:51.663Z,599.00
2017-11-10T08:24:01.017Z,585.63
2017-11-10T08:26:14.646Z,576.80
2017-11-10T08:28:22.224Z,573.23
2017-11-10T08:32:50.025Z,557.90
2017-11-10T08:35:04.703Z,557.83
2017-11-10T08:37:14.280Z,534.20
2017-11-10T08:39:19.809Z,526.07
2017-11-10T08:41:26.794Z,518.23
2017-11-10T08:43:33.958Z,508.93
2017-11-10T08:45:39.577Z,508.10
2017-11-10T08:47:45.814Z,579.43
2017-11-10T08:49:52.363Z,608.20
2017-11-10T08:51:59.639Z,655.53
2017-11-10T08:54:09.016Z,619.13
2017-11-10T08:56:16.869Z,624.70
2017-11-10T08:58:23.377Z,612.77
2017-11-10T09:00:31.984Z,612.40
2017-11-10T09:02:38.756Z,601.83
2017-11-10T09:04:44.473Z,865.63
2017-11-10T09:06:51.807Z,753.50
2017-11-10T09:08:58.185Z,809.17
2017-11-10T09:11:04.045Z,731.60
2017-11-10T09:13:09.546Z,702.53
2017-11-10T09:15:18.517Z,700.87
2017-11-10T09:17:36.846Z,696.57
2017-11-10T09:19:43.448Z,688.30
2017-11-10T09:21:53.819Z,677.00
2017-11-10T09:26:57.488Z,680.30
2017-11-10T09:29:14.593Z,704.53
2017-11-10T09:31:20.538Z,710.50
2017-11-10T09:33:27.051Z,777.33
2017-11-10T09:35:33.460Z,747.73
2017-11-10T09:37:39.748Z,740.73
2017-11-10T09:39:45.979Z,742.97
2017-11-10T09:41:57.244Z,735.13
2017-11-10T09:44:04.156Z,737.07
2017-11-10T09:46:13.067Z,735.63
2017-11-10T09:48:23.046Z,714.10
2017-11-10T09:50:33.179Z,715.73
2017-11-10T09:52:39.376Z,708.10
2017-11-10T09:54:46.313Z,681.87
2017-11-10T09:56:52.414Z,685.80
2017-11-10T09:59:04.012Z,684.47
2017-11-10T10:01:09.974Z,663.33
2017-11-10T10:03:18.674Z,665.97
2017-11-10T10:05:24.985Z,653.13
2017-11-10T10:07:33.081Z,648.30
2017-11-10T10:09:39.563Z,661.27
2017-11-10T10:11:46.544Z,823.20
2017-11-10T10:13:53.590Z,715.83
2017-11-10T10:16:00.407Z,717.50
2017-11-10T10:18:07.846Z,745.90
2017-11-10T10:20:17.899Z,727.87
2017-11-10T10:22:24.170Z,720.03
2017-11-10T10:24:30.232Z,717.37
2017-11-10T10:26:36.022Z,813.53
2017-11-10T10:28:41.716Z,701.47
2017-11-10T10:30:48.240Z,700.93
2017-11-10T10:32:54.639Z,685.87
2017-11-10T10:35:03.197Z,688.27
2017-11-10T10:37:09.196Z,771.50
2017-11-10T10:39:18.862Z,672.90
2017-11-10T10:41:24.497Z,654.70
2017-11-10T10:43:30.454Z,638.70
2017-11-10T10:45:36.254Z,628.60
2017-11-10T10:47:42.011Z,626.30
2017-11-10T10:49:49.049Z,613.33
2017-11-10T10:51:55.450Z,614.33
2017-11-10T10:54:18.836Z,595.37
2017-11-10T10:56:25.436Z,592.77
2017-11-10T10:58:34.159Z,594.77
2017-11-10T11:00:43.123Z,576.63
2017-11-10T11:02:58.922Z,565.63
2017-11-10T11:05:14.249Z,559.20
2017-11-10T11:07:23.491Z,538.77
2017-11-10T11:09:35.173Z,543.87
2017-11-10T11:11:51.192Z,553.30
2017-11-10T11:13:59.768Z,531.20
2017-11-10T11:16:07.269Z,566.70
2017-11-10T11:18:22.135Z,554.80
2017-11-10T11:20:31.634Z,542.47
2017-11-10T11:22:41.119Z,523.67
2017-11-10T11:24:55.738Z,517.80
2017-11-10T11:27:04.478Z,506.93
2017-11-10T11:31:29.328Z,529.03
2017-11-10T11:33:46.992Z,593.43
2017-11-10T11:35:54.929Z,617.20
2017-11-10T11:38:17.921Z,614.97
2017-11-10T11:40:29.356Z,627.07
2017-11-10T11:42:46.450Z,555.60
2017-11-10T11:45:09.823Z,993.40
2017-11-10T11:47:19.890Z,526.97
2017-11-10T11:49:26.374Z,465.57
2017-11-10T11:51:32.054Z,449.00
2017-11-10T11:54:01.893Z,349.40
2017-11-10T11:56:23.697Z,336.53
2017-11-10T11:58:30.928Z,285.17
2017-11-10T12:00:44.836Z,241.17
2017-11-10T12:02:52.616Z,248.03
2017-11-10T12:04:58.729Z,232.83
2017-11-10T12:07:04.466Z,225.87
2017-11-10T12:09:10.120Z,457.13
2017-11-10T12:11:17.785Z,588.03
2017-11-10T12:13:23.745Z,277.07
2017-11-10T12:15:30.105Z,423.20
2017-11-10T12:17:36.449Z,186.90
2017-11-10T12:19:43.119Z,142.43
2017-11-10T12:21:49.787Z,177.43
2017-11-10T12:23:56.245Z,180.27
2017-11-10T12:26:04.277Z,158.73
2017-11-10T12:28:14.486Z,117.63
2017-11-10T12:30:22.892Z,112.07
2017-11-10T12:32:30.872Z,78.87
2017-11-10T12:34:36.915Z,81.13
2017-11-10T12:36:43.401Z,107.43
2017-11-10T12:38:50.264Z,89.67
2017-11-10T12:40:56.761Z,81.47
2017-11-10T12:43:05.841Z,74.10
2017-11-10T12:45:17.675Z,72.20
2017-11-10T12:47:23.499Z,60.37
2017-11-10T12:49:29.415Z,61.80
2017-11-10T13:03:33.278Z,45.03
2017-11-10T13:05:39.195Z,51.73
2017-11-10T13:07:45.614Z,40.10
2017-11-10T13:09:50.925Z,36.07
2017-11-10T13:11:56.775Z,35.57
2017-11-10T13:14:04.647Z,38.40
2017-11-10T13:16:13.551Z,31.77
2017-11-10T13:18:21.028Z,35.00
2017-11-10T13:20:27.687Z,27.23
2017-11-10T13:22:34.320Z,35.57
2017-11-10T13:24:40.760Z,23.67
2017-11-10T13:26:47.306Z,24.33
2017-11-10T13:28:54.060Z,21.33
2017-11-10T13:31:01.432Z,24.90
2017-11-10T13:33:08.970Z,22.30
2017-11-10T13:35:18.455Z,23.40
2017-11-10T13:37:25.075Z,17.27
2017-11-10T13:39:32.137Z,20.33
2017-11-10T13:41:38.212Z,16.60
2017-11-10T13:43:49.207Z,14.97
2017-11-10T13:46:04.953Z,15.10
2017-11-10T13:48:13.111Z,18.17
2017-11-10T13:52:38.902Z,11.67
2017-11-10T13:54:47.374Z,13.30
2017-11-10T13:56:55.923Z,13.57
2017-11-10T13:59:07.329Z,10.80
2017-11-10T14:01:27.535Z,15.53
2017-11-10T14:03:34.125Z,12.37
2017-11-10T14:05:41.439Z,9.67
2017-11-10T14:07:49.472Z,9.43
2017-11-10T14:09:57.276Z,8.87
2017-11-10T14:12:05.748Z,10.73
2017-11-10T14:14:15.152Z,8.53
2017-11-10T14:16:27.926Z,7.07
2017-11-10T14:18:41.856Z,7.50
2017-11-10T14:20:53.134Z,8.03
2017-11-10T14:23:03.693Z,8.00
2017-11-10T14:25:15.782Z,6.30
2017-11-10T14:27:22.710Z,7.80
2017-11-10T14:29:30.591Z,6.00
2017-11-10T14:31:36.862Z,5.97
2017-11-10T14:33:43.286Z,5.10
2017-11-10T14:35:54.983Z,5.20
2017-11-10T14:38:00.869Z,5.30
2017-11-10T14:40:08.059Z,427.37
2017-11-10T14:42:18.836Z,513.00
2017-11-10T14:44:27.842Z,300.33
2017-11-10T14:46:35.649Z,251.17
2017-11-10T14:48:43.011Z,231.87
2017-11-10T14:50:51.100Z,152.47
2017-11-10T14:52:57.072Z,144.43
2017-11-10T14:55:04.336Z,95.10
2017-11-10T14:57:32.206Z,375.37
2017-11-10T14:59:38.267Z,478.53
2017-11-10T15:01:48.153Z,422.37
2017-11-10T15:03:55.770Z,275.53
2017-11-10T15:06:09.234Z,243.53
2017-11-10T15:08:17.252Z,206.60
2017-11-10T15:10:25.120Z,176.30
2017-11-10T15:12:31.310Z,335.73
2017-11-10T15:14:38.466Z,244.37
2017-11-10T15:16:45.557Z,286.67
2017-11-10T15:18:54.664Z,247.10
2017-11-10T15:21:06.233Z,273.23
2017-11-10T15:23:16.015Z,206.53
2017-11-10T15:25:22.737Z,207.53
2017-11-10T15:27:28.453Z,174.60
2017-11-10T15:29:35.002Z,148.53
2017-11-10T15:31:40.895Z,126.43
2017-11-10T15:33:47.739Z,109.30
2017-11-10T15:35:54.045Z,150.23
2017-11-10T15:38:03.411Z,370.43
2017-11-10T15:40:14.806Z,434.97
2017-11-10T15:42:21.707Z,316.17
2017-11-10T15:44:27.729Z,289.90
2017-11-10T15:46:33.639Z,247.40
2017-11-10T15:48:39.446Z,192.57
2017-11-10T15:50:46.072Z,174.83
2017-11-10T15:52:54.967Z,149.27
2017-11-10T15:55:05.630Z,130.13
2017-11-10T15:57:16.262Z,116.17
2017-11-10T15:59:33.204Z,100.50
2017-11-10T16:01:40.246Z,100.37
2017-11-10T16:03:47.354Z,74.23
2017-11-10T16:05:54.417Z,69.53
2017-11-10T16:08:09.217Z,64.60
2017-11-10T16:10:20.210Z,60.60
2017-11-10T16:12:26.260Z,41.63
2017-11-10T16:14:40.506Z,43.37
2017-11-10T16:16:47.367Z,42.20
2017-11-10T16:18:54.707Z,41.07
2017-11-10T16:21:08.115Z,36.87
2017-11-10T16:23:16.715Z,134.03
2017-11-10T16:27:52.692Z,325.30
2017-11-10T16:30:02.838Z,279.27
2017-11-10T16:32:09.896Z,248.53
2017-11-10T16:34:20.788Z,208.60
2017-11-10T16:39:24.812Z,154.83
2017-11-10T16:41:34.515Z,126.73
2017-11-10T16:43:53.296Z,110.77
2017-11-10T16:46:04.289Z,92.00
2017-11-10T16:48:27.544Z,74.77
2017-11-10T16:50:33.826Z,70.00
2017-11-10T16:52:39.886Z,72.77
2017-11-10T16:54:47.611Z,68.77
2017-11-10T16:56:54.372Z,53.07
2017-11-10T16:59:05.158Z,60.37
2017-11-10T17:01:20.316Z,55.47
2017-11-10T17:03:31.678Z,39.47
2017-11-10T17:05:41.512Z,40.87
2017-11-10T17:07:53.288Z,34.83
2017-11-10T17:10:02.117Z,29.43
2017-11-10T17:12:16.870Z,29.27
2017-11-10T17:14:28.052Z,29.47
2017-11-10T17:16:37.262Z,24.77
2017-11-10T17:18:45.623Z,23.40
2017-11-10T17:20:54.629Z,19.73
2017-11-10T17:23:04.897Z,20.20
2017-11-10T17:25:20.605Z,14.47
2017-11-10T17:27:26.963Z,15.60
2017-11-10T17:29:32.730Z,15.07
2017-11-10T17:31:42.248Z,14.13
2017-11-10T17:33:49.390Z,12.50
2017-11-10T17:35:57.510Z,10.80
2017-11-10T17:38:08.368Z,10.83
2017-11-10T17:40:20.980Z,11.93
2017-11-10T17:42:32.005Z,12.67
2017-11-10T17:44:43.802Z,10.37
2017-11-10T17:46:49.721Z,8.57
2017-11-10T17:48:57.227Z,8.23
2017-11-10T17:53:27.920Z,6.93
2017-11-10T17:55:34.264Z,6.67
2017-11-10T17:57:45.448Z,9.70
2017-11-10T17:59:53.572Z,12.17
2017-11-10T18:02:03.605Z,5.73
2017-11-10T18:04:21.872Z,6.23
2017-11-10T18:06:27.807Z,4.67
2017-11-10T18:08:34.799Z,6.10
2017-11-10T18:10:42.443Z,5.10
2017-11-10T18:12:50.651Z,4.30
2017-11-10T18:15:00.701Z,4.00
2017-11-10T18:17:08.388Z,3.87
2017-11-10T18:19:17.429Z,4.30
2017-11-10T18:21:25.359Z,5.77
2017-11-10T18:23:43.812Z,3.53
2017-11-10T18:25:50.871Z,3.13
2017-11-10T18:28:04.504Z,2.97
2017-11-10T18:30:18.883Z,2.80
2017-11-10T18:32:29.715Z,2.77
2017-11-10T18:34:37.628Z,3.70
2017-11-10T18:36:44.912Z,4.00
2017-11-10T18:38:53.221Z,2.60
2017-11-10T18:41:02.207Z,3.30
2017-11-10T18:43:09.295Z,2.50
2017-11-10T18:45:17.967Z,2.63
2017-11-10T18:47:26.172Z,3.00
2017-11-10T18:49:34.597Z,3.37
2017-11-10T18:51:42.068Z,2.70
2017-11-10T18:53:48.137Z,4.00
2017-11-10T18:55:56.728Z,2.97
2017-11-10T18:58:05.289Z,3.50
2017-11-10T19:00:17.930Z,2.80
2017-11-10T19:02:25.029Z,5.03
2017-11-10T19:04:30.880Z,3.97
2017-11-10T19:06:39.528Z,3.43
2017-11-10T19:08:50.380Z,3.97
2017-11-10T19:11:01.854Z,2.67
2017-11-10T19:13:14.555Z,2.83
2017-11-10T19:15:23.735Z,2.17
2017-11-10T19:17:36.216Z,4.53
2017-11-10T19:19:48.370Z,3.43
2017-11-10T19:21:54.869Z,2.20
2017-11-10T19:24:05.704Z,2.10
2017-11-10T19:26:19.088Z,7.73
2017-11-10T19:28:27.886Z,2.43
2017-11-10T19:30:33.979Z,3.83
2017-11-10T19:32:43.577Z,3.37
2017-11-10T19:34:49.571Z,4.40
2017-11-10T19:37:05.111Z,2.67
2017-11-10T19:39:22.495Z,2.23
2017-11-10T19:41:29.661Z,2.97
2017-11-10T19:43:37.568Z,4.50
2017-11-10T19:45:46.999Z,4.33
2017-11-10T19:48:12.523Z,3.53
2017-11-10T19:50:21.167Z,3.17
2017-11-10T19:52:28.616Z,2.40
2017-11-10T19:54:34.968Z,2.67
2017-11-10T19:56:48.414Z,4.30
2017-11-10T19:58:58.520Z,4.10
2017-11-10T20:01:07.291Z,2.07
2017-11-10T20:03:17.416Z,2.90
2017-11-10T20:05:23.730Z,2.70
2017-11-10T20:07:29.562Z,5.13
2017-11-10T20:09:37.111Z,6.53
2017-11-10T20:11:44.937Z,4.40
2017-11-10T20:13:52.783Z,4.40
2017-11-10T20:16:01.906Z,6.00
2017-11-10T20:18:12.819Z,8.63
2017-11-10T20:20:21.855Z,6.13
2017-11-10T20:22:29.982Z,5.83
2017-11-10T20:24:37.069Z,3.37
2017-11-10T20:27:01.964Z,4.50
2017-11-10T20:29:13.786Z,5.30
2017-11-10T20:31:28.679Z,3.67
2017-11-10T20:36:21.181Z,3.37
2017-11-10T20:38:30.670Z,4.77
2017-11-10T20:40:40.553Z,1.97
2017-11-10T20:42:51.489Z,4.63
2017-11-10T20:44:59.486Z,5.57
2017-11-10T20:47:19.575Z,5.23
2017-11-10T20:49:26.568Z,6.90
2017-11-10T20:51:40.241Z,2.80
2017-11-10T20:53:50.590Z,5.23
2017-11-10T20:56:20.785Z,2.80
2017-11-10T20:58:31.274Z,4.37
2017-11-10T21:00:45.797Z,2.60
2017-11-10T21:02:58.470Z,2.27
2017-11-10T21:05:08.860Z,3.93
2017-11-10T21:07:18.241Z,2.53
2017-11-10T21:09:24.685Z,2.50
2017-11-10T21:11:32.928Z,2.20
2017-11-10T21:13:53.402Z,2.90
2017-11-10T21:16:03.197Z,4.17
2017-11-10T21:18:10.522Z,3.03
2017-11-10T21:20:28.799Z,4.83
2017-11-10T21:22:38.032Z,2.00
2017-11-10T21:24:47.209Z,2.60
2017-11-10T21:27:01.498Z,2.20
2017-11-10T21:29:17.352Z,2.43
2017-11-10T21:31:29.190Z,2.33
2017-11-10T21:33:36.903Z,4.80
2017-11-10T21:38:46.537Z,2.13
2017-11-10T21:40:55.246Z,5.57
2017-11-10T21:43:10.687Z,4.30
2017-11-10T21:45:20.045Z,4.03
2017-11-10T21:48:01.235Z,4.00
2017-11-10T21:50:25.917Z,6.13
2017-11-10T21:52:46.136Z,4.47
2017-11-10T21:54:56.483Z,6.03
2017-11-10T21:57:07.886Z,3.73
2017-11-10T21:59:19.304Z,3.10
2017-11-10T22:01:30.969Z,5.17
2017-11-10T22:03:49.147Z,4.50
2017-11-10T22:05:56.457Z,3.93
2017-11-10T22:08:20.666Z,2.23
2017-11-10T22:10:31.702Z,3.80
2017-11-10T22:12:38.699Z,3.13
2017-11-10T22:14:50.279Z,4.10
2017-11-10T22:17:00.256Z,7.87
2017-11-10T22:19:09.845Z,3.50
2017-11-10T22:21:18.620Z,3.00
2017-11-10T22:23:25.003Z,3.57
2017-11-10T22:25:33.069Z,5.20
2017-11-10T22:30:39.650Z,4.13
2017-11-10T22:32:59.254Z,3.10
2017-11-10T22:35:08.532Z,4.53
2017-11-10T22:37:19.876Z,5.17
2017-11-10T22:39:25.964Z,7.53
2017-11-10T22:41:33.163Z,4.23
2017-11-10T22:43:39.178Z,2.60
2017-11-10T22:45:47.200Z,3.73
2017-11-10T22:47:53.918Z,2.40
2017-11-10T22:50:01.645Z,5.17
2017-11-10T22:52:08.915Z,2.63
2017-11-10T22:54:19.116Z,3.77
2017-11-10T22:56:26.222Z,3.17
2017-11-10T22:58:32.558Z,13.10
2017-11-10T23:00:38.666Z,4.13
2017-11-10T23:02:49.651Z,3.53
2017-11-10T23:04:56.456Z,7.10
2017-11-10T23:07:05.032Z,22.33
2017-11-10T23:09:14.799Z,66.60
2017-11-10T23:11:34.208Z,26.13
2017-11-10T23:13:40.540Z,34.57
2017-11-10T23:15:48.079Z,5.83
2017-11-10T23:18:02.273Z,33.90
2017-11-10T23:20:10.293Z,54.27
2017-11-10T23:22:19.337Z,27.20
2017-11-10T23:24:25.092Z,35.30
2017-11-10T23:26:31.193Z,289.33
2017-11-10T23:28:40.072Z,31.97
2017-11-10T23:30:48.051Z,492.90
2017-11-10T23:32:55.755Z,147.53
2017-11-10T23:35:05.185Z,1018.33
2017-11-10T23:37:14.561Z,237.13
2017-11-10T23:39:20.554Z,1095.37
2017-11-10T23:41:26.317Z,212.80
2017-11-10T23:43:32.161Z,164.53
2017-11-10T23:45:38.501Z,64.83
2017-11-10T23:47:45.265Z,17.23
2017-11-10T23:49:51.391Z,10.13
2017-11-10T23:52:03.100Z,7.60
2017-11-10T23:54:09.692Z,3.30
2017-11-10T23:56:17.718Z,7.60
2017-11-10T23:58:23.833Z,4.17
